Time;durP1;ratioP1;P1;durP2;ratioP2;P2;SDS_P1;SDS_P2;PMS_P1;PMS_P2;Temp;Humidity;BMP_temperature;BMP_pressure;BME280_temperature;BME280_humidity;BME280_pressure;Samples;Min_cycle;Max_cycle;Signal;HPM_P1;HPM_P2
2021/03/07 00:01:47;;;;;;;4.67;4.27;;;4.10;99.90;;;;;;5020631;28;20240;-72
2021/03/07 00:04:12;;;;;;;5.97;4.80;;;4.00;99.90;;;;;;5012882;28;20665;-72
2021/03/07 00:06:37;;;;;;;5.30;4.80;;;4.00;99.90;;;;;;5012929;28;20177;-72
2021/03/07 00:09:03;;;;;;;6.37;5.10;;;4.00;99.90;;;;;;5012795;28;20215;-72
2021/03/07 00:11:29;;;;;;;6.50;5.90;;;4.00;99.90;;;;;;4995129;28;20164;-73
2021/03/07 00:13:54;;;;;;;8.33;6.20;;;4.00;99.90;;;;;;5012572;28;20188;-72
2021/03/07 00:16:19;;;;;;;6.20;5.60;;;4.10;99.90;;;;;;5012762;28;20536;-72
2021/03/07 00:18:45;;;;;;;6.77;5.10;;;4.00;99.90;;;;;;5012722;28;20259;-72
2021/03/07 00:21:11;;;;;;;5.50;4.90;;;4.00;99.90;;;;;;5012594;28;20227;-72
2021/03/07 00:23:36;;;;;;;7.43;5.23;;;4.00;99.90;;;;;;5012381;28;20453;-72
2021/03/07 00:26:02;;;;;;;9.07;4.97;;;4.00;99.90;;;;;;5012470;28;20172;-71
2021/03/07 00:28:27;;;;;;;8.30;5.50;;;4.00;99.90;;;;;;5012434;28;20218;-71
2021/03/07 00:30:53;;;;;;;6.27;4.90;;;4.00;99.90;;;;;;5011418;28;20478;-72
2021/03/07 00:33:18;;;;;;;6.63;5.77;;;4.00;99.90;;;;;;4995024;28;20211;-71
2021/03/07 00:35:44;;;;;;;6.50;4.70;;;4.00;99.90;;;;;;4977514;28;20177;-71
2021/03/07 00:38:09;;;;;;;6.20;4.20;;;3.90;99.90;;;;;;4994181;28;20225;-73
2021/03/07 00:40:35;;;;;;;5.47;4.27;;;3.90;99.90;;;;;;4993906;28;20658;-71
2021/03/07 00:43:00;;;;;;;5.33;4.80;;;3.90;99.90;;;;;;4975153;28;20177;-72
2021/03/07 00:45:26;;;;;;;4.83;4.40;;;3.90;99.90;;;;;;4992568;28;20259;-71
2021/03/07 00:47:51;;;;;;;13.77;5.57;;;3.90;99.90;;;;;;4992440;28;20654;-71
2021/03/07 00:50:20;;;;;;;6.33;5.00;;;3.80;99.90;;;;;;4992436;28;20223;-72
2021/03/07 00:52:45;;;;;;;8.33;5.53;;;3.80;99.90;;;;;;4992421;28;20701;-71
2021/03/07 00:55:11;;;;;;;9.67;6.10;;;3.80;99.90;;;;;;4992536;28;20748;-71
2021/03/07 00:57:37;;;;;;;6.37;5.77;;;3.80;99.90;;;;;;4992369;28;20542;-71
2021/03/07 01:00:14;;;;;;;5.70;4.70;;;3.80;99.90;;;;;;4992412;28;20173;-72
2021/03/07 01:02:39;;;;;;;8.47;5.90;;;3.80;99.90;;;;;;5011544;28;20179;-71
2021/03/07 01:05:06;;;;;;;9.13;5.77;;;3.80;99.90;;;;;;5012704;28;20435;-72
2021/03/07 01:07:31;;;;;;;7.00;5.77;;;3.80;99.90;;;;;;5016572;28;20207;-72
2021/03/07 01:09:57;;;;;;;11.43;5.93;;;3.80;99.90;;;;;;5024394;28;20564;-71
2021/03/07 01:12:22;;;;;;;6.43;5.27;;;3.90;99.90;;;;;;5031736;28;20646;-72
2021/03/07 01:14:48;;;;;;;7.83;6.00;;;3.80;99.90;;;;;;5031688;28;20592;-70
2021/03/07 01:17:13;;;;;;;8.67;6.43;;;3.80;99.90;;;;;;5025687;28;20177;-72
2021/03/07 01:19:39;;;;;;;7.07;5.97;;;3.70;99.90;;;;;;5023514;28;20226;-71
2021/03/07 01:22:05;;;;;;;5.67;5.17;;;3.70;99.90;;;;;;5022359;28;20594;-72
2021/03/07 01:24:30;;;;;;;6.97;5.00;;;3.60;99.90;;;;;;5023153;28;20687;-71
2021/03/07 01:26:56;;;;;;;6.30;5.70;;;3.50;99.90;;;;;;5016313;28;20176;-71
2021/03/07 01:29:22;;;;;;;7.37;5.77;;;3.50;99.90;;;;;;5011579;28;20202;-72
2021/03/07 01:31:47;;;;;;;6.30;5.30;;;3.50;99.90;;;;;;5012170;28;20247;-72
2021/03/07 01:34:13;;;;;;;5.20;4.70;;;3.50;99.90;;;;;;5011559;28;20427;-71
2021/03/07 01:36:38;;;;;;;6.90;5.90;;;3.50;99.90;;;;;;5015023;28;20187;-71
2021/03/07 01:39:05;;;;;;;6.97;5.80;;;3.50;99.90;;;;;;5015338;28;20645;-71
2021/03/07 01:41:30;;;;;;;5.43;4.93;;;3.40;99.90;;;;;;5015365;28;20176;-71
2021/03/07 01:43:56;;;;;;;7.83;6.57;;;3.40;99.90;;;;;;5015445;28;20427;-72
2021/03/07 01:46:22;;;;;;;8.50;5.30;;;3.40;99.90;;;;;;5015329;28;20540;-71
2021/03/07 01:48:48;;;;;;;5.67;4.80;;;3.40;99.90;;;;;;5015344;28;20195;-72
2021/03/07 01:51:14;;;;;;;7.10;5.53;;;3.50;99.90;;;;;;5011178;28;20404;-72
2021/03/07 01:53:40;;;;;;;9.30;6.67;;;3.50;99.90;;;;;;4995617;28;20518;-72
2021/03/07 01:56:09;;;;;;;6.73;5.80;;;3.50;99.90;;;;;;4995750;28;20404;-71
2021/03/07 01:58:37;;;;;;;6.40;5.80;;;3.50;99.90;;;;;;4995313;28;20470;-72
2021/03/07 02:01:04;;;;;;;7.43;6.30;;;3.50;99.90;;;;;;5007756;28;20406;-72
2021/03/07 02:03:30;;;;;;;6.43;5.10;;;3.50;99.90;;;;;;5034826;28;20504;-72
2021/03/07 02:05:56;;;;;;;10.10;5.40;;;3.50;99.90;;;;;;5034890;28;20497;-72
2021/03/07 02:08:22;;;;;;;6.50;5.80;;;3.50;99.90;;;;;;5022609;28;20458;-72
2021/03/07 02:10:52;;;;;;;5.07;4.60;;;3.40;99.90;;;;;;5014994;28;20383;-72
2021/03/07 02:13:32;;;;;;;8.33;5.20;;;3.40;99.90;;;;;;5014617;28;20446;-71
2021/03/07 02:16:02;;;;;;;6.73;5.70;;;3.40;99.90;;;;;;4997200;28;20407;-71
2021/03/07 02:18:29;;;;;;;6.03;5.17;;;3.50;99.90;;;;;;5014724;28;20783;-71
2021/03/07 02:21:32;;;;;;;8.30;5.27;;;3.40;99.90;;;;;;4997279;28;20420;-72
2021/03/07 02:24:01;;;;;;;4.77;4.27;;;3.40;99.90;;;;;;4995267;28;20946;-71
2021/03/07 02:26:27;;;;;;;7.13;4.10;;;3.40;99.90;;;;;;5015638;28;20899;-72
2021/03/07 02:28:52;;;;;;;6.20;5.00;;;3.40;99.90;;;;;;5030222;28;20454;-71
2021/03/07 02:31:23;;;;;;;4.30;3.80;;;3.30;99.90;;;;;;5034259;28;20168;-72
2021/03/07 02:33:58;;;;;;;7.67;4.40;;;3.30;99.90;;;;;;5034632;28;20227;-71
2021/03/07 02:36:33;;;;;;;4.87;4.47;;;3.40;99.90;;;;;;5034241;28;20451;-72
2021/03/07 02:39:01;;;;;;;4.70;3.90;;;3.30;99.90;;;;;;5034120;28;20430;-72
2021/03/07 02:41:30;;;;;;;3.57;3.23;;;3.30;99.90;;;;;;5034074;28;20934;-73
2021/03/07 02:43:57;;;;;;;6.40;4.47;;;3.20;99.90;;;;;;5034184;28;20479;-73
2021/03/07 02:46:24;;;;;;;5.37;3.10;;;3.20;99.90;;;;;;5033720;28;20411;-71
2021/03/07 02:48:56;;;;;;;7.83;2.90;;;3.10;99.90;;;;;;5034294;28;20861;-73
2021/03/07 02:51:25;;;;;;;4.80;2.50;;;3.10;99.90;;;;;;5033918;28;20991;-72
2021/03/07 02:53:53;;;;;;;2.60;1.90;;;3.10;99.90;;;;;;5033781;28;20418;-73
2021/03/07 02:56:21;;;;;;;3.87;1.83;;;3.00;99.90;;;;;;5033665;28;20907;-73
2021/03/07 02:58:48;;;;;;;3.43;1.80;;;3.00;99.90;;;;;;5033372;28;20410;-71
2021/03/07 03:01:18;;;;;;;2.60;1.90;;;3.00;99.90;;;;;;5025896;28;20419;-72
2021/03/07 03:03:45;;;;;;;8.00;2.20;;;3.00;99.90;;;;;;5013914;28;21001;-73
2021/03/07 03:06:14;;;;;;;4.00;2.50;;;3.00;99.90;;;;;;5013937;28;20426;-72
2021/03/07 03:08:41;;;;;;;8.80;3.43;;;2.90;99.90;;;;;;5008216;28;20871;-72
2021/03/07 03:11:08;;;;;;;2.10;1.90;;;2.90;99.90;;;;;;5014048;28;20400;-71
2021/03/07 03:13:36;;;;;;;2.47;2.27;;;2.90;99.90;;;;;;5013487;28;20427;-72
2021/03/07 03:16:03;;;;;;;7.27;1.77;;;2.90;99.90;;;;;;5013797;28;20473;-72
2021/03/07 03:18:30;;;;;;;2.60;2.13;;;2.90;99.90;;;;;;5013539;28;20415;-71
2021/03/07 03:20:59;;;;;;;2.10;1.70;;;2.90;99.90;;;;;;5013618;28;20414;-72
2021/03/07 03:23:24;;;;;;;2.13;1.80;;;2.80;99.90;;;;;;5013406;28;20423;-72
2021/03/07 03:25:51;;;;;;;5.33;1.87;;;2.80;99.90;;;;;;5013387;28;20951;-72
2021/03/07 03:28:19;;;;;;;4.90;1.60;;;2.90;99.90;;;;;;5013236;28;20415;-72
2021/03/07 03:30:45;;;;;;;2.90;1.73;;;2.90;99.90;;;;;;5013387;28;20411;-72
2021/03/07 03:33:10;;;;;;;3.83;2.30;;;2.80;99.90;;;;;;5013359;28;20486;-73
2021/03/07 03:35:36;;;;;;;5.20;2.77;;;2.80;99.90;;;;;;5013172;28;20630;-72
2021/03/07 03:38:02;;;;;;;4.13;2.07;;;2.80;99.90;;;;;;5013261;28;20171;-72
2021/03/07 03:40:28;;;;;;;6.00;3.07;;;2.80;99.90;;;;;;5013068;28;20199;-73
2021/03/07 03:42:57;;;;;;;2.93;1.90;;;2.80;99.90;;;;;;5013199;28;20172;-72
2021/03/07 03:45:24;;;;;;;5.53;2.03;;;2.80;99.90;;;;;;5013440;28;20417;-72
2021/03/07 03:47:55;;;;;;;4.50;2.77;;;2.80;99.90;;;;;;5012929;28;20395;-73
2021/03/07 03:50:23;;;;;;;5.43;2.23;;;2.80;99.90;;;;;;5013016;28;20558;-73
2021/03/07 03:52:51;;;;;;;4.77;2.40;;;2.70;99.90;;;;;;5013129;28;20443;-72
2021/03/07 03:55:21;;;;;;;7.23;2.80;;;2.70;99.90;;;;;;5013124;28;20407;-73
2021/03/07 03:57:52;;;;;;;2.80;2.60;;;2.70;99.90;;;;;;5012507;28;20422;-73
2021/03/07 04:00:21;;;;;;;4.30;2.33;;;2.70;99.90;;;;;;5014072;28;20822;-73
2021/03/07 04:02:47;;;;;;;5.13;3.17;;;2.70;99.90;;;;;;5032563;28;20406;-72
2021/03/07 04:05:17;;;;;;;4.07;2.17;;;2.60;99.90;;;;;;5023638;28;20415;-72
2021/03/07 04:07:45;;;;;;;4.27;2.43;;;2.60;99.90;;;;;;5033122;28;20406;-72
2021/03/07 04:10:11;;;;;;;4.20;2.63;;;2.60;99.90;;;;;;5032558;28;20462;-73
2021/03/07 04:12:39;;;;;;;4.87;2.80;;;2.60;99.90;;;;;;5032624;28;20406;-72
2021/03/07 04:15:06;;;;;;;4.63;3.20;;;2.60;99.90;;;;;;5032619;28;20517;-73
2021/03/07 04:17:32;;;;;;;5.23;3.20;;;2.50;99.90;;;;;;5032278;28;20402;-73
2021/03/07 04:19:58;;;;;;;5.70;3.73;;;2.50;99.90;;;;;;5032259;28;20768;-73
2021/03/07 04:22:24;;;;;;;4.10;3.30;;;2.40;99.90;;;;;;5032668;28;20425;-73
2021/03/07 04:24:50;;;;;;;3.40;2.90;;;2.50;99.90;;;;;;5032358;28;20191;-71
2021/03/07 04:27:17;;;;;;;6.20;3.30;;;2.50;99.90;;;;;;5031999;28;20458;-72
2021/03/07 04:29:43;;;;;;;5.27;3.67;;;2.40;99.90;;;;;;5032287;28;20209;-72
2021/03/07 04:32:09;;;;;;;3.90;2.93;;;2.40;99.90;;;;;;5032338;28;20493;-72
2021/03/07 04:34:35;;;;;;;3.63;3.27;;;2.50;99.90;;;;;;5032147;28;20201;-73
2021/03/07 04:37:01;;;;;;;7.10;4.10;;;2.50;99.90;;;;;;5032018;28;20895;-72
2021/03/07 04:39:27;;;;;;;7.10;3.77;;;2.40;99.90;;;;;;5031945;28;20466;-72
2021/03/07 04:41:53;;;;;;;4.47;3.70;;;2.40;99.90;;;;;;5032193;28;20764;-72
2021/03/07 04:44:18;;;;;;;7.00;3.00;;;2.40;99.90;;;;;;5031944;28;20203;-73
2021/03/07 04:46:44;;;;;;;5.80;3.10;;;2.30;99.90;;;;;;5031876;28;20259;-72
2021/03/07 04:49:09;;;;;;;5.30;3.20;;;2.40;99.90;;;;;;5031953;28;20200;-72
2021/03/07 04:51:35;;;;;;;13.47;4.20;;;2.40;99.90;;;;;;5031838;28;20234;-72
2021/03/07 04:54:00;;;;;;;3.80;3.37;;;2.30;99.90;;;;;;5014042;28;20184;-72
2021/03/07 04:56:30;;;;;;;8.00;3.90;;;2.40;99.90;;;;;;5013916;28;20637;-72
2021/03/07 04:58:56;;;;;;;4.97;3.13;;;2.40;99.90;;;;;;5031772;28;20644;-72
2021/03/07 05:01:22;;;;;;;4.20;3.70;;;2.40;99.90;;;;;;5023309;28;20415;-71
2021/03/07 05:03:48;;;;;;;6.43;4.23;;;2.40;99.90;;;;;;5002802;28;20459;-71
2021/03/07 05:06:14;;;;;;;5.00;3.50;;;2.40;99.90;;;;;;4992330;28;20418;-72
2021/03/07 05:08:40;;;;;;;5.90;3.90;;;2.40;99.90;;;;;;4992505;28;20455;-71
2021/03/07 05:11:06;;;;;;;7.50;3.70;;;2.40;99.90;;;;;;4977587;28;20179;-72
2021/03/07 05:13:31;;;;;;;8.90;4.10;;;2.30;99.90;;;;;;4996346;28;20428;-72
2021/03/07 05:15:57;;;;;;;7.17;4.20;;;2.40;99.90;;;;;;4996274;28;20177;-71
2021/03/07 05:18:22;;;;;;;8.10;2.93;;;2.40;99.90;;;;;;4995882;28;20638;-71
2021/03/07 05:20:48;;;;;;;5.03;3.80;;;2.40;99.90;;;;;;4996600;28;20634;-71
2021/03/07 05:23:13;;;;;;;3.90;3.17;;;2.40;99.90;;;;;;4996110;28;20191;-72
2021/03/07 05:25:39;;;;;;;5.07;3.40;;;2.30;99.90;;;;;;4996257;28;20173;-71
2021/03/07 05:28:05;;;;;;;3.33;3.00;;;2.40;99.90;;;;;;4996069;28;20211;-71
2021/03/07 05:30:30;;;;;;;8.37;4.57;;;2.30;99.90;;;;;;4995980;28;20204;-72
2021/03/07 05:32:56;;;;;;;7.90;3.90;;;2.30;99.90;;;;;;4995836;28;20180;-71
2021/03/07 05:35:21;;;;;;;4.93;3.10;;;2.40;99.90;;;;;;4996135;28;20181;-72
2021/03/07 05:37:47;;;;;;;6.20;4.10;;;2.40;99.90;;;;;;4996028;28;20265;-71
2021/03/07 05:40:13;;;;;;;3.30;3.00;;;2.40;99.90;;;;;;5005872;28;20485;-72
2021/03/07 05:42:39;;;;;;;3.20;2.57;;;2.40;99.90;;;;;;5026869;28;20842;-73
2021/03/07 05:45:06;;;;;;;4.60;3.97;;;2.30;99.90;;;;;;5035131;28;20286;-72
2021/03/07 05:47:32;;;;;;;4.17;3.03;;;2.50;99.90;;;;;;5034672;28;20402;-72
2021/03/07 05:49:57;;;;;;;8.30;3.90;;;2.50;99.90;;;;;;5035006;28;20454;-72
2021/03/07 05:52:24;;;;;;;9.60;3.80;;;2.40;99.90;;;;;;5034946;28;20221;-72
2021/03/07 05:54:51;;;;;;;7.23;2.93;;;2.40;99.90;;;;;;5035039;28;20191;-72
2021/03/07 05:57:21;;;;;;;5.73;2.93;;;2.30;99.90;;;;;;5034957;28;20909;-72
2021/03/07 05:59:48;;;;;;;3.30;3.00;;;2.30;99.90;;;;;;5034989;28;20517;-72
2021/03/07 06:02:14;;;;;;;4.40;3.07;;;2.40;99.90;;;;;;5018825;28;20911;-72
2021/03/07 06:04:41;;;;;;;3.83;3.10;;;2.40;99.90;;;;;;5015245;28;20453;-72
2021/03/07 06:07:07;;;;;;;4.27;3.00;;;2.50;99.90;;;;;;5014792;28;20522;-72
2021/03/07 06:09:32;;;;;;;3.87;2.87;;;2.50;99.90;;;;;;5014928;28;20459;-71
2021/03/07 06:12:01;;;;;;;5.67;3.00;;;2.40;99.90;;;;;;5015160;28;20403;-71
2021/03/07 06:14:31;;;;;;;5.13;3.10;;;2.40;99.90;;;;;;5014769;28;20180;-71
2021/03/07 06:17:12;;;;;;;11.80;3.07;;;2.40;99.90;;;;;;5014516;28;20863;-71
2021/03/07 06:19:59;;;;;;;4.53;2.60;;;2.30;99.90;;;;;;5015066;28;20793;-71
2021/03/07 06:22:27;;;;;;;3.87;2.63;;;2.40;99.90;;;;;;5014255;28;20413;-71
2021/03/07 06:24:53;;;;;;;5.60;2.33;;;2.40;99.90;;;;;;5014692;28;20435;-72
2021/03/07 06:27:19;;;;;;;5.13;3.20;;;2.40;99.90;;;;;;5015226;28;20426;-72
2021/03/07 06:30:01;;;;;;;3.23;2.60;;;2.40;99.90;;;;;;5014631;28;20458;-72
2021/03/07 06:32:33;;;;;;;4.37;2.53;;;2.50;99.90;;;;;;5014636;28;20410;-72
2021/03/07 06:34:58;;;;;;;3.90;3.37;;;2.40;99.90;;;;;;5014395;28;20532;-71
2021/03/07 06:37:24;;;;;;;7.70;3.10;;;2.40;99.90;;;;;;5014401;28;20493;-72
2021/03/07 06:39:50;;;;;;;3.07;2.77;;;2.50;99.90;;;;;;5009509;28;20542;-71
2021/03/07 06:42:17;;;;;;;5.53;3.23;;;2.50;99.90;;;;;;4995350;28;20532;-71
2021/03/07 06:45:00;;;;;;;2.20;2.10;;;2.50;99.90;;;;;;4994802;28;20526;-73
2021/03/07 06:47:28;;;;;;;3.57;2.27;;;2.50;99.90;;;;;;4994643;28;20404;-73
2021/03/07 06:50:11;;;;;;;8.73;2.80;;;2.50;99.90;;;;;;4994765;28;20455;-72
2021/03/07 06:52:54;;;;;;;3.37;2.50;;;2.50;99.90;;;;;;4994994;28;20415;-72
2021/03/07 06:55:23;;;;;;;4.67;2.40;;;2.50;99.90;;;;;;4994734;28;20419;-71
2021/03/07 06:57:49;;;;;;;4.30;2.80;;;2.60;99.90;;;;;;4994460;28;20412;-72
2021/03/07 07:00:15;;;;;;;4.93;2.83;;;2.70;99.90;;;;;;4994328;28;20400;-73
2021/03/07 07:03:08;;;;;;;5.17;3.00;;;2.60;99.90;;;;;;5013675;28;20180;-73
2021/03/07 07:05:35;;;;;;;4.00;2.37;;;2.60;99.90;;;;;;5013957;28;20420;-71
2021/03/07 07:08:01;;;;;;;9.03;2.70;;;2.70;99.90;;;;;;5013843;28;20497;-73
2021/03/07 07:10:26;;;;;;;6.10;2.80;;;2.50;99.90;;;;;;5013944;28;20513;-73
2021/03/07 07:13:03;;;;;;;3.17;2.73;;;2.60;99.90;;;;;;5013580;28;20172;-72
2021/03/07 07:15:28;;;;;;;6.87;2.87;;;2.80;99.90;;;;;;5013725;28;20255;-71
2021/03/07 07:17:54;;;;;;;5.00;2.67;;;2.90;99.90;;;;;;5013485;28;20994;-70
2021/03/07 07:20:19;;;;;;;4.60;3.30;;;3.00;99.90;;;;;;5024903;28;20472;-72
2021/03/07 07:22:45;;;;;;;4.63;2.73;;;2.90;99.90;;;;;;5033980;28;20179;-72
2021/03/07 07:25:11;;;;;;;4.60;2.87;;;2.90;99.90;;;;;;5034111;28;20249;-72
2021/03/07 07:27:36;;;;;;;3.50;2.20;;;2.90;99.90;;;;;;5034217;28;20262;-72
2021/03/07 07:30:06;;;;;;;2.57;2.37;;;2.90;99.90;;;;;;5033982;28;20548;-72
2021/03/07 07:32:40;;;;;;;3.90;2.67;;;2.80;99.90;;;;;;5033038;28;20227;-72
2021/03/07 07:35:15;;;;;;;2.40;2.20;;;2.70;99.90;;;;;;5033597;28;20804;-72
2021/03/07 07:37:47;;;;;;;4.43;2.27;;;2.80;99.90;;;;;;5033143;28;20464;-72
2021/03/07 07:40:13;;;;;;;4.80;2.67;;;3.00;99.90;;;;;;5033216;28;20524;-72
2021/03/07 07:42:38;;;;;;;5.17;2.80;;;3.10;99.90;;;;;;5033062;28;20423;-72
2021/03/07 07:45:10;;;;;;;3.07;2.77;;;2.90;99.90;;;;;;5032956;28;20673;-72
2021/03/07 07:47:47;;;;;;;3.47;2.60;;;3.00;99.90;;;;;;5014983;28;20178;-72
2021/03/07 07:50:31;;;;;;;3.23;2.20;;;2.90;99.90;;;;;;5032988;28;20565;-72
2021/03/07 07:53:01;;;;;;;3.60;2.73;;;3.10;99.90;;;;;;5032776;28;20410;-72
2021/03/07 07:55:50;;;;;;;3.57;2.37;;;3.10;99.90;;;;;;5032909;28;20406;-72
2021/03/07 07:58:34;;;;;;;3.40;3.10;;;3.30;99.90;;;;;;5032264;28;20749;-72
2021/03/07 08:01:02;;;;;;;10.53;3.93;;;3.10;99.90;;;;;;5026693;28;20415;-72
2021/03/07 08:03:42;;;;;;;5.20;2.90;;;3.20;99.90;;;;;;5013149;28;20408;-72
2021/03/07 08:06:09;;;;;;;3.60;2.70;;;3.20;99.90;;;;;;5012931;28;20782;-72
2021/03/07 08:08:37;;;;;;;3.40;2.40;;;3.30;99.90;;;;;;5013008;28;20462;-72
2021/03/07 08:11:07;;;;;;;3.20;2.90;;;3.20;99.90;;;;;;5012916;28;20414;-72
2021/03/07 08:13:32;;;;;;;4.13;2.40;;;3.10;99.90;;;;;;5012675;28;20506;-72
2021/03/07 08:15:59;;;;;;;3.30;2.47;;;3.30;99.90;;;;;;5012707;28;20539;-72
2021/03/07 08:18:43;;;;;;;3.93;3.60;;;3.20;99.90;;;;;;5004549;28;20182;-72
2021/03/07 08:21:09;;;;;;;2.90;2.30;;;3.30;99.90;;;;;;4993305;28;20486;-72
2021/03/07 08:23:59;;;;;;;5.87;2.80;;;3.40;99.90;;;;;;4993056;28;20468;-72
2021/03/07 08:26:47;;;;;;;5.83;3.37;;;3.50;99.90;;;;;;4992839;28;20408;-72
2021/03/07 08:29:38;;;;;;;4.23;2.87;;;3.50;99.90;;;;;;4992690;28;20460;-72
2021/03/07 08:32:30;;;;;;;10.50;2.60;;;3.60;99.90;;;;;;5002119;28;20949;-71
2021/03/07 08:35:05;;;;;;;4.33;2.20;;;3.70;99.90;;;;;;5012268;28;20435;-71
2021/03/07 08:37:31;;;;;;;3.73;2.47;;;3.60;99.90;;;;;;5005211;28;20824;-72
2021/03/07 08:40:30;;;;;;;4.53;3.40;;;3.50;99.90;;;;;;5012065;28;20439;-71
2021/03/07 08:43:17;;;;;;;3.03;2.20;;;3.40;99.90;;;;;;5012516;28;20238;-72
2021/03/07 08:46:08;;;;;;;2.83;2.57;;;3.60;99.90;;;;;;5011961;28;20411;-72
2021/03/07 08:48:35;;;;;;;4.03;2.43;;;3.40;99.90;;;;;;5012131;28;20486;-72
2021/03/07 08:51:01;;;;;;;3.53;3.10;;;3.40;99.90;;;;;;5012130;28;20433;-72
2021/03/07 08:53:28;;;;;;;4.60;2.03;;;3.60;99.90;;;;;;5001706;28;20534;-72
2021/03/07 08:55:54;;;;;;;3.70;2.50;;;3.50;99.90;;;;;;5007513;28;20430;-72
2021/03/07 08:58:21;;;;;;;2.80;2.13;;;3.40;99.90;;;;;;5011821;28;20916;-72
2021/03/07 09:00:50;;;;;;;5.93;2.60;;;3.40;99.90;;;;;;5001709;28;20414;-76
2021/03/07 09:03:16;;;;;;;2.97;2.70;;;3.40;99.90;;;;;;5033846;28;20963;-72
2021/03/07 09:05:42;;;;;;;8.13;4.27;;;3.50;99.90;;;;;;5033592;28;20445;-72
2021/03/07 09:08:08;;;;;;;5.03;3.30;;;3.50;99.90;;;;;;5032735;28;20479;-74
2021/03/07 09:10:35;;;;;;;4.63;2.93;;;3.60;99.90;;;;;;5031222;28;20207;-73
2021/03/07 09:13:13;;;;;;;4.80;2.93;;;3.70;99.90;;;;;;5021854;28;20187;-72
2021/03/07 09:15:49;;;;;;;3.50;3.20;;;3.60;99.90;;;;;;5032889;28;20413;-71
2021/03/07 09:18:15;;;;;;;3.73;3.00;;;3.70;99.90;;;;;;5025899;28;20407;-72
2021/03/07 09:20:41;;;;;;;3.07;2.80;;;3.80;99.90;;;;;;5013024;28;20872;-73
2021/03/07 09:23:30;;;;;;;9.43;3.20;;;3.60;99.90;;;;;;5012691;28;20435;-71
2021/03/07 09:25:57;;;;;;;3.50;2.93;;;3.80;99.90;;;;;;5012761;28;20497;-71
2021/03/07 09:28:32;;;;;;;7.67;3.20;;;3.80;99.90;;;;;;5012518;28;20434;-71
2021/03/07 09:30:59;;;;;;;3.30;2.33;;;3.60;99.90;;;;;;5012533;28;20415;-70
2021/03/07 09:33:25;;;;;;;5.80;3.60;;;3.70;99.90;;;;;;5012834;28;20434;-71
2021/03/07 09:36:11;;;;;;;4.80;3.20;;;3.80;99.90;;;;;;5012805;28;20494;-71
2021/03/07 09:38:40;;;;;;;3.60;3.17;;;3.90;99.90;;;;;;5010769;28;20199;-71
2021/03/07 09:41:06;;;;;;;4.50;3.43;;;3.90;99.90;;;;;;5028196;28;20945;-73
2021/03/07 09:43:32;;;;;;;3.43;3.00;;;3.70;99.90;;;;;;5020627;28;20435;-75
2021/03/07 09:45:58;;;;;;;4.10;3.33;;;3.80;99.90;;;;;;5012446;28;20251;-77
2021/03/07 09:48:30;;;;;;;3.73;2.90;;;3.90;99.90;;;;;;5019558;28;20435;-72
2021/03/07 09:50:55;;;;;;;5.77;3.20;;;3.70;99.90;;;;;;5027494;28;20179;-72
2021/03/07 09:53:21;;;;;;;4.90;3.20;;;3.80;99.90;;;;;;5022623;28;20521;-71
2021/03/07 09:55:47;;;;;;;3.37;2.80;;;4.00;99.90;;;;;;5011902;28;20461;-71
2021/03/07 09:58:14;;;;;;;4.07;2.80;;;3.90;99.90;;;;;;5014939;28;20826;-72
2021/03/07 10:00:46;;;;;;;4.50;3.00;;;3.90;99.90;;;;;;5018032;28;20167;-71
2021/03/07 10:03:23;;;;;;;4.93;3.17;;;4.00;99.90;;;;;;5035228;28;20796;-71
2021/03/07 10:06:14;;;;;;;3.73;3.40;;;3.70;99.90;;;;;;5034797;28;20509;-71
2021/03/07 10:08:41;;;;;;;5.23;3.07;;;3.80;99.90;;;;;;5034564;28;20825;-71
2021/03/07 10:11:18;;;;;;;3.80;3.37;;;3.90;99.90;;;;;;5035025;28;20884;-71
2021/03/07 10:13:45;;;;;;;6.70;3.33;;;4.20;99.90;;;;;;5019788;28;20439;-71
2021/03/07 10:16:24;;;;;;;5.73;4.43;;;3.80;99.90;;;;;;5014833;28;20442;-71
2021/03/07 10:19:06;;;;;;;4.30;3.07;;;3.90;99.90;;;;;;5014799;28;20436;-71
2021/03/07 10:21:32;;;;;;;4.57;3.23;;;3.80;99.90;;;;;;5014962;28;20434;-72
2021/03/07 10:24:11;;;;;;;4.20;3.70;;;3.70;99.90;;;;;;5014869;28;20442;-73
2021/03/07 10:26:38;;;;;;;4.50;3.63;;;3.80;99.90;;;;;;5014491;28;20888;-71
2021/03/07 10:29:18;;;;;;;3.40;3.10;;;3.80;99.90;;;;;;5014451;28;20508;-71
2021/03/07 10:31:58;;;;;;;4.10;3.47;;;3.80;99.90;;;;;;5014715;28;20407;-71
2021/03/07 10:34:42;;;;;;;10.40;4.00;;;3.70;99.90;;;;;;5014733;28;20419;-71
2021/03/07 10:37:28;;;;;;;5.37;3.13;;;3.70;99.90;;;;;;5014354;28;20438;-71
2021/03/07 10:39:53;;;;;;;3.63;3.33;;;3.80;99.90;;;;;;5014335;28;20530;-71
2021/03/07 10:42:19;;;;;;;4.40;4.03;;;3.90;99.90;;;;;;5014440;28;20407;-71
2021/03/07 10:44:44;;;;;;;5.57;3.90;;;3.80;99.90;;;;;;5014096;28;20254;-71
2021/03/07 10:47:15;;;;;;;4.03;3.63;;;3.70;99.90;;;;;;5013343;28;20189;-72
2021/03/07 10:49:40;;;;;;;5.30;3.80;;;3.90;99.90;;;;;;5025519;28;20271;-72
2021/03/07 10:52:06;;;;;;;6.27;4.00;;;3.90;99.90;;;;;;5020237;28;20426;-71
2021/03/07 10:54:31;;;;;;;5.10;4.23;;;3.90;99.90;;;;;;5003383;28;20250;-71
2021/03/07 10:56:57;;;;;;;6.93;4.80;;;4.00;99.90;;;;;;5011214;28;20569;-73
2021/03/07 10:59:23;;;;;;;7.20;4.93;;;3.80;99.90;;;;;;5005256;28;20252;-72
2021/03/07 11:01:49;;;;;;;12.53;4.80;;;3.80;99.90;;;;;;4994562;28;20172;-72
2021/03/07 11:04:14;;;;;;;5.00;3.70;;;3.80;99.90;;;;;;4994281;28;20431;-72
2021/03/07 11:06:40;;;;;;;5.83;4.20;;;3.80;99.90;;;;;;5018886;28;20176;-71
2021/03/07 11:09:05;;;;;;;3.60;3.30;;;3.70;99.90;;;;;;5011468;28;20203;-72
2021/03/07 11:11:34;;;;;;;5.37;4.73;;;3.80;99.90;;;;;;5013856;28;20585;-72
2021/03/07 11:13:59;;;;;;;6.43;3.87;;;3.70;99.90;;;;;;5013502;28;20180;-72
2021/03/07 11:16:25;;;;;;;12.13;4.13;;;3.80;99.90;;;;;;5013481;28;20402;-72
2021/03/07 11:18:50;;;;;;;8.00;4.53;;;3.90;99.90;;;;;;5013629;28;20195;-72
2021/03/07 11:21:16;;;;;;;5.00;4.50;;;3.80;99.90;;;;;;5013728;28;20592;-72
2021/03/07 11:23:41;;;;;;;3.70;3.30;;;4.00;99.90;;;;;;5012518;28;20200;-72
2021/03/07 11:26:07;;;;;;;5.40;3.43;;;3.80;99.90;;;;;;4995493;28;20176;-71
2021/03/07 11:28:32;;;;;;;3.83;3.47;;;4.00;99.90;;;;;;4993954;28;20200;-71
2021/03/07 11:30:58;;;;;;;7.63;4.73;;;4.00;99.90;;;;;;4994164;28;20665;-72
2021/03/07 11:33:24;;;;;;;10.03;4.13;;;3.90;99.90;;;;;;4994207;28;20208;-72
2021/03/07 11:35:50;;;;;;;11.10;5.10;;;4.00;99.90;;;;;;4994198;28;20247;-72
2021/03/07 11:38:16;;;;;;;7.90;4.50;;;3.90;99.90;;;;;;4993708;28;20177;-72
2021/03/07 11:40:41;;;;;;;9.70;4.20;;;3.90;99.90;;;;;;4994268;28;20943;-72
2021/03/07 11:43:07;;;;;;;5.13;3.73;;;3.90;99.90;;;;;;4993771;28;20196;-72
2021/03/07 11:45:32;;;;;;;4.27;3.50;;;3.90;99.90;;;;;;4994000;28;20173;-72
2021/03/07 11:47:58;;;;;;;5.83;4.20;;;3.80;99.90;;;;;;5008719;28;20513;-73
2021/03/07 11:50:24;;;;;;;5.63;4.53;;;3.90;99.90;;;;;;5013031;28;20656;-72
2021/03/07 11:52:49;;;;;;;7.47;4.80;;;3.90;99.90;;;;;;5013204;28;20173;-72
2021/03/07 11:55:14;;;;;;;4.93;3.57;;;3.80;99.90;;;;;;5013233;28;20173;-72
2021/03/07 11:57:40;;;;;;;6.03;4.13;;;3.90;99.90;;;;;;5012973;28;20168;-72
2021/03/07 12:00:09;;;;;;;4.93;3.90;;;4.00;99.90;;;;;;5020867;28;20183;-71
2021/03/07 12:02:34;;;;;;;9.03;4.10;;;4.00;99.90;;;;;;5026299;28;20187;-73
2021/03/07 12:05:00;;;;;;;4.70;3.27;;;4.00;99.90;;;;;;5016796;28;20463;-72
2021/03/07 12:07:25;;;;;;;9.00;4.00;;;3.90;99.90;;;;;;4996271;28;20205;-71
2021/03/07 12:09:50;;;;;;;5.73;4.43;;;3.80;99.90;;;;;;4996215;28;20192;-72
2021/03/07 12:12:17;;;;;;;4.60;4.20;;;3.80;99.90;;;;;;5012796;28;20698;-73
2021/03/07 12:14:42;;;;;;;6.57;5.20;;;3.80;99.90;;;;;;5013208;28;20657;-71
2021/03/07 12:17:08;;;;;;;6.23;4.63;;;3.80;99.90;;;;;;5012577;28;20407;-71
2021/03/07 12:19:34;;;;;;;7.13;4.60;;;3.90;99.90;;;;;;5012229;28;20228;-72
2021/03/07 12:21:59;;;;;;;5.33;4.30;;;3.90;99.90;;;;;;4995134;28;20946;-70
2021/03/07 12:24:25;;;;;;;7.60;4.40;;;3.90;99.90;;;;;;5021529;28;20183;-72
2021/03/07 12:26:50;;;;;;;4.20;3.90;;;3.90;99.90;;;;;;5010664;28;20201;-73
2021/03/07 12:29:16;;;;;;;7.97;4.50;;;3.90;99.90;;;;;;4995773;28;20460;-71
2021/03/07 12:31:41;;;;;;;6.90;5.10;;;4.00;99.90;;;;;;4995908;28;20202;-75
2021/03/07 12:34:07;;;;;;;6.40;4.30;;;3.90;99.90;;;;;;5012391;28;20246;-73
2021/03/07 12:36:32;;;;;;;7.60;4.10;;;3.90;99.90;;;;;;5012324;28;20657;-70
2021/03/07 12:39:00;;;;;;;8.27;5.03;;;4.00;99.90;;;;;;5012329;28;20200;-71
2021/03/07 12:41:25;;;;;;;8.60;4.27;;;3.90;99.90;;;;;;5012193;28;20173;-73
2021/03/07 12:43:50;;;;;;;11.37;5.20;;;3.80;99.90;;;;;;5012026;28;21029;-73
2021/03/07 12:46:16;;;;;;;5.83;4.30;;;3.80;99.90;;;;;;5018268;28;20168;-72
2021/03/07 12:48:41;;;;;;;5.43;4.50;;;3.80;99.90;;;;;;4991393;28;20227;-73
2021/03/07 12:51:07;;;;;;;5.00;4.50;;;3.90;99.90;;;;;;4992626;28;20191;-72
2021/03/07 12:53:32;;;;;;;7.73;4.20;;;3.90;99.90;;;;;;4992588;28;20200;-72
2021/03/07 12:55:58;;;;;;;4.57;4.17;;;3.90;99.90;;;;;;5004513;28;20199;-71
2021/03/07 12:58:24;;;;;;;8.33;4.13;;;4.00;99.90;;;;;;5011721;28;20180;-73
2021/03/07 13:00:50;;;;;;;4.50;3.70;;;4.00;99.90;;;;;;5011936;28;20412;-73
2021/03/07 13:03:15;;;;;;;5.10;4.10;;;3.90;99.90;;;;;;5012012;28;20572;-73
2021/03/07 13:05:41;;;;;;;4.63;3.80;;;4.00;99.90;;;;;;5012112;28;20156;-73